N38C KTPA-KISM
Flight info
| Callsign | N38C |
|---|---|
| Flight time | 0h 40m |
| Altitude | 3000 |
| Route | DIRECT |
| Aircraft | P28/L-VGDW/C |
Departure
| Time | 2026-04-26 18:29 |
|---|---|
| Airport | Tampa International Airport (KTPA) |
Arrival
| Time | 2026-04-26 19:10 |
|---|---|
| Airport | Kissimmee Gateway Airport (KISM) |
| Time | Latitude | Longitude | Altitude | Speed | Heading |
|---|---|---|---|---|---|
| 2026-04-26 17:37 | 27.96553 | -82.52637 | 35 ft | 0 kts | 90° |
| 2026-04-26 18:15 | 27.96555 | -82.52619 | 35 ft | 0 kts | 52° |
| 2026-04-26 18:15 | 27.96593 | -82.52620 | 35 ft | 7 kts | 356° |
| 2026-04-26 18:15 | 27.96612 | -82.52653 | 35 ft | 3 kts | 268° |
| 2026-04-26 18:24 | 27.96612 | -82.52654 | 35 ft | 0 kts | 268° |
| 2026-04-26 18:25 | 27.96611 | -82.52658 | 35 ft | 4 kts | 267° |
| 2026-04-26 18:26 | 27.96612 | -82.52667 | 35 ft | 5 kts | 271° |
| 2026-04-26 18:26 | 27.96551 | -82.52696 | 36 ft | 17 kts | 186° |
| 2026-04-26 18:26 | 27.96445 | -82.52696 | 34 ft | 13 kts | 129° |
| 2026-04-26 18:26 | 27.96501 | -82.52692 | 35 ft | 10 kts | 337° |
| 2026-04-26 18:27 | 27.96571 | -82.52697 | 36 ft | 11 kts | 351° |
| 2026-04-26 18:27 | 27.96595 | -82.52749 | 36 ft | 8 kts | 224° |
| 2026-04-26 18:27 | 27.96538 | -82.52771 | 36 ft | 11 kts | 185° |
| 2026-04-26 18:27 | 27.96448 | -82.52795 | 36 ft | 6 kts | 236° |
| 2026-04-26 18:28 | 27.96445 | -82.52800 | 36 ft | 0 kts | 250° |
| 2026-04-26 18:28 | 27.96445 | -82.52873 | 37 ft | 15 kts | 289° |
| 2026-04-26 18:28 | 27.96581 | -82.52893 | 34 ft | 40 kts | 2° |
| 2026-04-26 18:28 | 27.97019 | -82.52873 | 98 ft | 76 kts | 4° |
| 2026-04-26 18:29 | 27.97551 | -82.52819 | 314 ft | 81 kts | 5° |
| 2026-04-26 18:29 | 27.98119 | -82.52730 | 551 ft | 82 kts | 5° |
| 2026-04-26 18:29 | 27.98683 | -82.52639 | 811 ft | 81 kts | 10° |
| 2026-04-26 18:29 | 27.99144 | -82.52284 | 1033 ft | 83 kts | 64° |
| 2026-04-26 18:30 | 27.99084 | -82.51639 | 1240 ft | 86 kts | 109° |
| 2026-04-26 18:30 | 27.98893 | -82.50960 | 1442 ft | 91 kts | 106° |
| 2026-04-26 18:30 | 27.98725 | -82.50255 | 1653 ft | 94 kts | 105° |
| 2026-04-26 18:30 | 27.98532 | -82.49511 | 1795 ft | 102 kts | 107° |
| 2026-04-26 18:31 | 27.98326 | -82.48734 | 1944 ft | 104 kts | 108° |
| 2026-04-26 18:31 | 27.98145 | -82.47935 | 2138 ft | 103 kts | 96° |
| 2026-04-26 18:31 | 27.98267 | -82.47146 | 2327 ft | 104 kts | 69° |
| 2026-04-26 18:31 | 27.98576 | -82.46389 | 2476 ft | 106 kts | 64° |
| 2026-04-26 18:32 | 27.98924 | -82.45642 | 2635 ft | 107 kts | 61° |
| 2026-04-26 18:32 | 27.99248 | -82.44905 | 2826 ft | 106 kts | 69° |
| 2026-04-26 18:32 | 27.99617 | -82.44174 | 2945 ft | 108 kts | 56° |
| 2026-04-26 18:32 | 28.00007 | -82.43450 | 3105 ft | 107 kts | 59° |
| 2026-04-26 18:33 | 28.00395 | -82.42724 | 3264 ft | 108 kts | 59° |
| 2026-04-26 18:33 | 28.00778 | -82.41984 | 3418 ft | 109 kts | 59° |
| 2026-04-26 18:33 | 28.01167 | -82.41244 | 3554 ft | 109 kts | 59° |
| 2026-04-26 18:33 | 28.01549 | -82.40519 | 3694 ft | 104 kts | 59° |
| 2026-04-26 18:34 | 28.01910 | -82.39835 | 3790 ft | 103 kts | 59° |
| 2026-04-26 18:34 | 28.02283 | -82.39120 | 3920 ft | 107 kts | 59° |
| 2026-04-26 18:34 | 28.02642 | -82.38374 | 4035 ft | 109 kts | 72° |
| 2026-04-26 18:34 | 28.02527 | -82.37540 | 4127 ft | 112 kts | 119° |
| 2026-04-26 18:35 | 28.02130 | -82.36736 | 4096 ft | 123 kts | 102° |
| 2026-04-26 18:35 | 28.02403 | -82.35839 | 4105 ft | 126 kts | 55° |
| 2026-04-26 18:35 | 28.02863 | -82.34996 | 4153 ft | 125 kts | 60° |
| 2026-04-26 18:35 | 28.03306 | -82.34148 | 4173 ft | 125 kts | 59° |
| 2026-04-26 18:36 | 28.03751 | -82.33300 | 4209 ft | 125 kts | 59° |
| 2026-04-26 18:36 | 28.04200 | -82.32452 | 4249 ft | 125 kts | 59° |
| 2026-04-26 18:36 | 28.04615 | -82.31579 | 4256 ft | 129 kts | 68° |
| 2026-04-26 18:36 | 28.04832 | -82.30598 | 4166 ft | 132 kts | 82° |
| 2026-04-26 18:37 | 28.04782 | -82.29573 | 4124 ft | 130 kts | 108° |
| 2026-04-26 18:37 | 28.04362 | -82.28666 | 4117 ft | 128 kts | 124° |
| 2026-04-26 18:37 | 28.04007 | -82.27790 | 4162 ft | 120 kts | 101° |
| 2026-04-26 18:37 | 28.04236 | -82.26919 | 4183 ft | 117 kts | 52° |
| 2026-04-26 18:38 | 28.04686 | -82.26136 | 4103 ft | 121 kts | 61° |
| 2026-04-26 18:38 | 28.05022 | -82.25262 | 4100 ft | 120 kts | 72° |
| 2026-04-26 18:38 | 28.05276 | -82.24362 | 4081 ft | 120 kts | 72° |
| 2026-04-26 18:38 | 28.05487 | -82.23443 | 4028 ft | 122 kts | 78° |
| 2026-04-26 18:39 | 28.05614 | -82.22493 | 3981 ft | 121 kts | 85° |
| 2026-04-26 18:39 | 28.05733 | -82.21564 | 3959 ft | 120 kts | 78° |
| 2026-04-26 18:39 | 28.05928 | -82.20643 | 3920 ft | 121 kts | 76° |
| 2026-04-26 18:39 | 28.06163 | -82.19729 | 3861 ft | 122 kts | 73° |
| 2026-04-26 18:40 | 28.06345 | -82.18776 | 3762 ft | 124 kts | 82° |
| 2026-04-26 18:40 | 28.06456 | -82.17814 | 3719 ft | 123 kts | 83° |
| 2026-04-26 18:40 | 28.06557 | -82.16849 | 3672 ft | 123 kts | 85° |
| 2026-04-26 18:40 | 28.06627 | -82.15855 | 3450 ft | 128 kts | 86° |
| 2026-04-26 18:41 | 28.06651 | -82.14869 | 3219 ft | 125 kts | 92° |
| 2026-04-26 18:41 | 28.06633 | -82.13901 | 3031 ft | 121 kts | 90° |
| 2026-04-26 18:41 | 28.06677 | -82.12969 | 2862 ft | 118 kts | 85° |
| 2026-04-26 18:41 | 28.06829 | -82.12086 | 2771 ft | 111 kts | 72° |
| 2026-04-26 18:42 | 28.07119 | -82.11254 | 2665 ft | 112 kts | 67° |
| 2026-04-26 18:42 | 28.07405 | -82.10429 | 2516 ft | 112 kts | 70° |
| 2026-04-26 18:42 | 28.07650 | -82.09606 | 2510 ft | 111 kts | 73° |
| 2026-04-26 18:42 | 28.07872 | -82.08758 | 2509 ft | 113 kts | 74° |
| 2026-04-26 18:43 | 28.08112 | -82.07913 | 2566 ft | 111 kts | 69° |
| 2026-04-26 18:43 | 28.08421 | -82.07117 | 2633 ft | 109 kts | 66° |
| 2026-04-26 18:43 | 28.08751 | -82.06318 | 2590 ft | 118 kts | 65° |
| 2026-04-26 18:43 | 28.09105 | -82.05470 | 2538 ft | 123 kts | 63° |
| 2026-04-26 18:44 | 28.09497 | -82.04602 | 2434 ft | 123 kts | 62° |
| 2026-04-26 18:44 | 28.09917 | -82.03752 | 2319 ft | 124 kts | 59° |
| 2026-04-26 18:44 | 28.10361 | -82.02933 | 2288 ft | 119 kts | 57° |
| 2026-04-26 18:44 | 28.10830 | -82.02154 | 2231 ft | 119 kts | 56° |
| 2026-04-26 18:45 | 28.11270 | -82.01361 | 2219 ft | 117 kts | 56° |
| 2026-04-26 18:45 | 28.11723 | -82.00612 | 2223 ft | 115 kts | 54° |
| 2026-04-26 18:45 | 28.12208 | -81.99904 | 2213 ft | 116 kts | 49° |
| 2026-04-26 18:45 | 28.12742 | -81.99227 | 2205 ft | 113 kts | 45° |
| 2026-04-26 18:46 | 28.13278 | -81.98559 | 2194 ft | 116 kts | 51° |
| 2026-04-26 18:46 | 28.13725 | -81.97821 | 2226 ft | 114 kts | 56° |
| 2026-04-26 18:46 | 28.14176 | -81.97085 | 2203 ft | 114 kts | 53° |
| 2026-04-26 18:46 | 28.14658 | -81.96367 | 2220 ft | 116 kts | 51° |
| 2026-04-26 18:47 | 28.15168 | -81.95686 | 2228 ft | 113 kts | 47° |
| 2026-04-26 18:47 | 28.15695 | -81.95035 | 2233 ft | 111 kts | 48° |
| 2026-04-26 18:47 | 28.16215 | -81.94385 | 2228 ft | 112 kts | 46° |
| 2026-04-26 18:47 | 28.16760 | -81.93750 | 2218 ft | 111 kts | 46° |
| 2026-04-26 18:48 | 28.17249 | -81.93060 | 2210 ft | 113 kts | 53° |
| 2026-04-26 18:48 | 28.17691 | -81.92339 | 2335 ft | 110 kts | 56° |
| 2026-04-26 18:48 | 28.18100 | -81.91595 | 2404 ft | 112 kts | 58° |
| 2026-04-26 18:48 | 28.18536 | -81.90833 | 2431 ft | 118 kts | 57° |
| 2026-04-26 18:49 | 28.18910 | -81.90037 | 2557 ft | 113 kts | 66° |
| 2026-04-26 18:49 | 28.19227 | -81.89193 | 2623 ft | 116 kts | 66° |
| 2026-04-26 18:49 | 28.19549 | -81.88369 | 2709 ft | 116 kts | 64° |
| 2026-04-26 18:49 | 28.19907 | -81.87554 | 2777 ft | 117 kts | 61° |
| 2026-04-26 18:50 | 28.20313 | -81.86734 | 2824 ft | 119 kts | 60° |
| 2026-04-26 18:50 | 28.20515 | -81.85850 | 2816 ft | 123 kts | 110° |
| 2026-04-26 18:50 | 28.19886 | -81.85995 | 2054 ft | 157 kts | 264° |
| 2026-04-26 18:50 | 28.19999 | -81.86945 | 2388 ft | 105 kts | 284° |
| 2026-04-26 18:51 | 28.20166 | -81.87731 | 2422 ft | 101 kts | 283° |
| 2026-04-26 18:51 | 28.20536 | -81.88358 | 2469 ft | 101 kts | 328° |
| 2026-04-26 18:51 | 28.21194 | -81.88398 | 2667 ft | 100 kts | 21° |
| 2026-04-26 18:51 | 28.21575 | -81.87731 | 2764 ft | 110 kts | 82° |
| 2026-04-26 18:52 | 28.21571 | -81.86852 | 2813 ft | 116 kts | 91° |
| 2026-04-26 18:52 | 28.21565 | -81.86245 | 2853 ft | 115 kts | 90° |
| 2026-04-26 18:52 | 28.21607 | -81.85036 | 2957 ft | 116 kts | 84° |
| 2026-04-26 18:52 | 28.21729 | -81.84131 | 3078 ft | 114 kts | 82° |
| 2026-04-26 18:53 | 28.21828 | -81.83245 | 3150 ft | 116 kts | 83° |
| 2026-04-26 18:53 | 28.21926 | -81.82323 | 3203 ft | 121 kts | 83° |
| 2026-04-26 18:53 | 28.22016 | -81.81340 | 3153 ft | 126 kts | 85° |
| 2026-04-26 18:53 | 28.22071 | -81.80361 | 3117 ft | 124 kts | 87° |
| 2026-04-26 18:54 | 28.22081 | -81.79376 | 3067 ft | 125 kts | 90° |
| 2026-04-26 18:54 | 28.22072 | -81.78716 | 3007 ft | 125 kts | 91° |
| 2026-04-26 18:54 | 28.22096 | -81.77426 | 2886 ft | 125 kts | 85° |
| 2026-04-26 18:54 | 28.22208 | -81.76452 | 2797 ft | 124 kts | 83° |
| 2026-04-26 18:55 | 28.22306 | -81.75477 | 2710 ft | 123 kts | 84° |
| 2026-04-26 18:55 | 28.22379 | -81.74535 | 2510 ft | 117 kts | 85° |
| 2026-04-26 18:55 | 28.22427 | -81.73929 | 2283 ft | 117 kts | 85° |
| 2026-04-26 18:55 | 28.22510 | -81.73005 | 1920 ft | 117 kts | 84° |
| 2026-04-26 18:56 | 28.22598 | -81.72096 | 1598 ft | 116 kts | 83° |
| 2026-04-26 18:56 | 28.22686 | -81.71243 | 1515 ft | 102 kts | 83° |
| 2026-04-26 18:56 | 28.22789 | -81.70427 | 1581 ft | 104 kts | 80° |
| 2026-04-26 18:56 | 28.22916 | -81.69602 | 1665 ft | 105 kts | 81° |
| 2026-04-26 18:57 | 28.23048 | -81.68774 | 1774 ft | 108 kts | 79° |
| 2026-04-26 18:57 | 28.23131 | -81.68228 | 1864 ft | 105 kts | 82° |
| 2026-04-26 18:57 | 28.23191 | -81.67124 | 1998 ft | 103 kts | 92° |
| 2026-04-26 18:57 | 28.23174 | -81.66305 | 2064 ft | 104 kts | 91° |
| 2026-04-26 18:58 | 28.23198 | -81.65489 | 2152 ft | 104 kts | 85° |
| 2026-04-26 18:58 | 28.23272 | -81.64676 | 2245 ft | 106 kts | 83° |
| 2026-04-26 18:58 | 28.23397 | -81.63817 | 2271 ft | 110 kts | 78° |
| 2026-04-26 18:58 | 28.23513 | -81.62942 | 2249 ft | 113 kts | 83° |
| 2026-04-26 18:59 | 28.23608 | -81.62067 | 2290 ft | 111 kts | 83° |
| 2026-04-26 18:59 | 28.23728 | -81.61199 | 2332 ft | 113 kts | 80° |
| 2026-04-26 18:59 | 28.23868 | -81.60332 | 2409 ft | 112 kts | 78° |
| 2026-04-26 18:59 | 28.24043 | -81.59475 | 2415 ft | 112 kts | 75° |
| 2026-04-26 19:00 | 28.24243 | -81.58620 | 2418 ft | 111 kts | 76° |
| 2026-04-26 19:00 | 28.24353 | -81.57774 | 2489 ft | 105 kts | 91° |
| 2026-04-26 19:00 | 28.24159 | -81.56991 | 2468 ft | 107 kts | 117° |
| 2026-04-26 19:00 | 28.23775 | -81.56278 | 2473 ft | 103 kts | 123° |
| 2026-04-26 19:01 | 28.23347 | -81.55613 | 2401 ft | 105 kts | 131° |
| 2026-04-26 19:01 | 28.22991 | -81.54912 | 2269 ft | 104 kts | 104° |
| 2026-04-26 19:01 | 28.23033 | -81.54100 | 2188 ft | 102 kts | 74° |
| 2026-04-26 19:01 | 28.23400 | -81.53441 | 2099 ft | 97 kts | 45° |
| 2026-04-26 19:02 | 28.23853 | -81.52909 | 1956 ft | 92 kts | 47° |
| 2026-04-26 19:02 | 28.24278 | -81.52378 | 1814 ft | 89 kts | 46° |
| 2026-04-26 19:02 | 28.24708 | -81.51862 | 1645 ft | 90 kts | 45° |
| 2026-04-26 19:02 | 28.24998 | -81.51530 | 1555 ft | 88 kts | 43° |
| 2026-04-26 19:03 | 28.25567 | -81.50923 | 1486 ft | 82 kts | 42° |
| 2026-04-26 19:03 | 28.25977 | -81.50471 | 1459 ft | 80 kts | 44° |
| 2026-04-26 19:03 | 28.26366 | -81.50002 | 1400 ft | 82 kts | 47° |
| 2026-04-26 19:03 | 28.26743 | -81.49518 | 1330 ft | 83 kts | 46° |
| 2026-04-26 19:04 | 28.27145 | -81.49063 | 1307 ft | 81 kts | 42° |
| 2026-04-26 19:04 | 28.27552 | -81.48615 | 1211 ft | 82 kts | 44° |
| 2026-04-26 19:04 | 28.27936 | -81.48142 | 1123 ft | 82 kts | 48° |
| 2026-04-26 19:04 | 28.28305 | -81.47668 | 1081 ft | 77 kts | 45° |
| 2026-04-26 19:05 | 28.29040 | -81.46760 | 997 ft | 79 kts | 47° |
| 2026-04-26 19:05 | 28.29378 | -81.46249 | 881 ft | 85 kts | 58° |
| 2026-04-26 19:05 | 28.29683 | -81.45691 | 808 ft | 83 kts | 57° |
| 2026-04-26 19:06 | 28.30034 | -81.45231 | 835 ft | 69 kts | 30° |
| 2026-04-26 19:06 | 28.30492 | -81.45241 | 847 ft | 69 kts | 327° |
| 2026-04-26 19:06 | 28.30709 | -81.45699 | 934 ft | 65 kts | 278° |
| 2026-04-26 19:06 | 28.30691 | -81.46232 | 957 ft | 72 kts | 262° |
| 2026-04-26 19:07 | 28.30586 | -81.46772 | 1013 ft | 69 kts | 253° |
| 2026-04-26 19:07 | 28.30365 | -81.47267 | 1043 ft | 71 kts | 233° |
| 2026-04-26 19:07 | 28.29986 | -81.47620 | 1087 ft | 72 kts | 209° |
| 2026-04-26 19:07 | 28.29507 | -81.47758 | 1120 ft | 72 kts | 183° |
| 2026-04-26 19:08 | 28.29020 | -81.47634 | 1135 ft | 73 kts | 160° |
| 2026-04-26 19:08 | 28.28542 | -81.47436 | 1146 ft | 73 kts | 161° |
| 2026-04-26 19:08 | 28.28161 | -81.47101 | 1162 ft | 73 kts | 114° |
| 2026-04-26 19:08 | 28.28104 | -81.46510 | 1139 ft | 77 kts | 89° |
| 2026-04-26 19:09 | 28.28102 | -81.45891 | 995 ft | 78 kts | 79° |
| 2026-04-26 19:09 | 28.28229 | -81.45292 | 720 ft | 77 kts | 71° |
| 2026-04-26 19:09 | 28.28492 | -81.44767 | 403 ft | 77 kts | 57° |
| 2026-04-26 19:09 | 28.28766 | -81.44262 | 103 ft | 71 kts | 59° |
| 2026-04-26 19:10 | 28.28971 | -81.43892 | 89 ft | 33 kts | 60° |
| 2026-04-26 19:10 | 28.29070 | -81.43787 | 87 ft | 15 kts | 347° |
| 2026-04-26 19:10 | 28.29168 | -81.43766 | 86 ft | 22 kts | 59° |
| 2026-04-26 19:10 | 28.29238 | -81.43649 | 86 ft | 9 kts | 25° |
| 2026-04-26 19:11 | 28.29280 | -81.43632 | 85 ft | 4 kts | 114° |
| 2026-04-26 19:11 | 28.29275 | -81.43627 | 85 ft | 0 kts | 147° |